createdAt,value
2022-07-31T00:00:24.654Z,24.14
2022-07-31T00:02:52.575Z,24.23
2022-07-31T00:05:20.388Z,23.84
2022-07-31T00:07:48.127Z,23.98
2022-07-31T00:10:15.868Z,24.07
2022-07-31T00:12:43.720Z,24.03
2022-07-31T00:15:12.548Z,24.20
2022-07-31T00:17:42.418Z,24.27
2022-07-31T00:20:13.225Z,24.26
2022-07-31T00:22:41.143Z,24.26
2022-07-31T00:25:10.484Z,24.28
2022-07-31T00:27:38.367Z,24.34
2022-07-31T00:30:07.194Z,23.96
2022-07-31T00:32:35.272Z,24.18
2022-07-31T00:35:05.085Z,24.13
2022-07-31T00:37:32.785Z,23.91
2022-07-31T00:40:00.496Z,23.86
2022-07-31T00:42:30.097Z,24.14
2022-07-31T00:44:57.821Z,23.90
2022-07-31T00:47:27.191Z,23.91
2022-07-31T00:49:54.997Z,23.94
2022-07-31T00:52:24.052Z,23.83
2022-07-31T00:54:51.949Z,23.86
2022-07-31T00:57:19.695Z,23.98
2022-07-31T00:59:47.463Z,24.11
2022-07-31T01:02:15.448Z,23.91
2022-07-31T01:04:44.567Z,24.01
2022-07-31T01:07:13.683Z,23.64
2022-07-31T01:09:44.832Z,23.94
2022-07-31T01:12:16.385Z,24.00
2022-07-31T01:14:47.433Z,23.93
2022-07-31T01:17:16.715Z,24.03
2022-07-31T01:19:46.081Z,24.04
2022-07-31T01:22:33.748Z,24.00
2022-07-31T01:25:09.572Z,23.98
2022-07-31T01:27:50.102Z,24.03
2022-07-31T01:30:19.904Z,24.08
2022-07-31T01:32:49.680Z,24.12
2022-07-31T01:35:20.993Z,24.10
2022-07-31T01:37:53.781Z,23.93
2022-07-31T01:40:27.364Z,23.88
2022-07-31T01:42:57.822Z,23.86
2022-07-31T01:45:27.392Z,23.93
2022-07-31T01:47:56.673Z,24.02
2022-07-31T01:50:43.091Z,23.84
2022-07-31T01:53:14.073Z,23.70
2022-07-31T01:55:56.453Z,23.85
2022-07-31T01:58:33.792Z,23.75
2022-07-31T02:01:04.273Z,23.77
2022-07-31T02:03:43.566Z,23.80
2022-07-31T02:06:14.622Z,23.57
2022-07-31T02:08:44.200Z,23.78
2022-07-31T02:11:13.945Z,23.60
2022-07-31T02:13:41.858Z,23.73
2022-07-31T02:16:11.067Z,23.79
2022-07-31T02:18:39.157Z,23.78
2022-07-31T02:21:07.132Z,23.74
2022-07-31T02:23:35.075Z,23.76
2022-07-31T02:26:04.606Z,23.76
2022-07-31T02:28:33.379Z,23.67
2022-07-31T02:31:02.603Z,23.66
2022-07-31T02:33:32.349Z,23.78
2022-07-31T02:36:01.061Z,23.59
2022-07-31T02:38:29.198Z,23.43
2022-07-31T02:40:59.192Z,23.55
2022-07-31T02:43:27.583Z,23.45
2022-07-31T02:45:55.958Z,23.55
2022-07-31T02:48:24.706Z,23.49
2022-07-31T02:50:56.872Z,23.56
2022-07-31T02:53:25.042Z,23.52
2022-07-31T02:55:52.848Z,23.60
2022-07-31T02:58:20.777Z,23.59
2022-07-31T03:00:48.769Z,23.59
2022-07-31T03:03:16.553Z,23.52
2022-07-31T03:05:44.305Z,23.51
2022-07-31T03:08:13.397Z,23.49
2022-07-31T03:10:41.110Z,23.47
2022-07-31T03:13:09.764Z,23.44
2022-07-31T03:15:39.034Z,23.39
2022-07-31T03:18:11.248Z,23.47
2022-07-31T03:20:40.409Z,23.51
2022-07-31T03:23:09.052Z,23.42
2022-07-31T03:25:38.556Z,23.31
2022-07-31T03:28:06.279Z,23.37
2022-07-31T03:30:34.008Z,23.38
2022-07-31T03:33:03.409Z,23.31
2022-07-31T03:35:31.620Z,23.23
2022-07-31T03:37:59.333Z,23.21
2022-07-31T03:40:27.223Z,23.29
2022-07-31T03:42:57.044Z,23.32
2022-07-31T03:45:25.556Z,23.04
2022-07-31T03:47:53.325Z,23.13
2022-07-31T03:50:22.412Z,22.99
2022-07-31T03:52:50.899Z,23.17
2022-07-31T03:55:18.613Z,23.08
2022-07-31T03:57:47.623Z,23.00
2022-07-31T04:00:19.126Z,23.03
2022-07-31T04:02:47.167Z,23.02
2022-07-31T04:05:15.101Z,23.12
2022-07-31T04:07:42.787Z,23.06
2022-07-31T04:10:11.290Z,23.12
2022-07-31T04:12:39.334Z,23.04
2022-07-31T04:15:07.918Z,23.04
2022-07-31T04:17:38.474Z,22.77
2022-07-31T04:20:07.522Z,23.00
2022-07-31T04:22:35.260Z,23.08
2022-07-31T04:25:07.246Z,22.97
2022-07-31T04:27:36.171Z,22.77
2022-07-31T04:30:16.364Z,22.83
2022-07-31T04:32:45.693Z,22.77
2022-07-31T04:35:13.610Z,22.79
2022-07-31T04:37:48.011Z,22.65
2022-07-31T04:40:17.036Z,22.56
2022-07-31T04:42:44.762Z,22.78
2022-07-31T04:45:12.594Z,22.70
2022-07-31T04:47:40.336Z,22.47
2022-07-31T04:50:10.600Z,22.65
2022-07-31T04:52:38.338Z,22.79
2022-07-31T04:55:06.829Z,22.70
2022-07-31T04:57:34.609Z,22.70
2022-07-31T05:00:02.451Z,22.74
2022-07-31T05:02:32.507Z,22.62
2022-07-31T05:05:00.294Z,22.58
2022-07-31T05:07:30.938Z,22.59
2022-07-31T05:09:59.000Z,22.72
2022-07-31T05:12:27.097Z,22.55
2022-07-31T05:14:54.823Z,22.53
2022-07-31T05:17:22.657Z,22.67
2022-07-31T05:19:50.349Z,22.65
2022-07-31T05:22:18.855Z,22.33
2022-07-31T05:24:48.101Z,22.27
2022-07-31T05:27:15.854Z,22.47
2022-07-31T05:29:43.775Z,22.73
2022-07-31T05:32:12.053Z,22.62
2022-07-31T05:34:39.997Z,22.16
2022-07-31T05:37:07.784Z,22.21
2022-07-31T05:39:35.521Z,22.46
2022-07-31T05:42:07.841Z,22.66
2022-07-31T05:44:35.671Z,22.75
2022-07-31T05:47:05.446Z,22.52
2022-07-31T05:49:33.247Z,22.61
2022-07-31T05:52:02.680Z,22.45
2022-07-31T05:54:34.732Z,22.30
2022-07-31T05:57:04.118Z,22.36
2022-07-31T05:59:35.513Z,22.56
2022-07-31T06:02:05.207Z,22.43
2022-07-31T06:04:33.184Z,22.42
2022-07-31T06:07:00.917Z,22.71
2022-07-31T06:09:28.889Z,22.61
2022-07-31T06:11:56.878Z,22.36
2022-07-31T06:14:24.668Z,22.20
2022-07-31T06:16:53.725Z,22.50
2022-07-31T06:19:24.627Z,22.73
2022-07-31T06:21:54.003Z,22.63
2022-07-31T06:24:21.917Z,22.55
2022-07-31T06:26:49.779Z,22.43
2022-07-31T06:29:17.627Z,22.65
2022-07-31T06:31:45.315Z,22.64
2022-07-31T06:34:17.113Z,22.66
2022-07-31T06:36:47.546Z,22.77
2022-07-31T06:39:15.252Z,22.40
2022-07-31T06:41:47.471Z,22.68
2022-07-31T06:44:15.523Z,22.40
2022-07-31T06:46:49.019Z,22.42
2022-07-31T06:49:18.796Z,22.29
2022-07-31T06:51:46.568Z,22.51
2022-07-31T06:54:14.323Z,22.67
2022-07-31T06:56:42.068Z,22.70
2022-07-31T06:59:09.992Z,22.49
2022-07-31T07:01:37.797Z,22.61
2022-07-31T07:04:05.981Z,22.53
2022-07-31T07:06:35.044Z,22.64
2022-07-31T07:09:04.136Z,22.67
2022-07-31T07:11:31.817Z,22.63
2022-07-31T07:13:59.527Z,22.63
2022-07-31T07:16:27.262Z,22.75
2022-07-31T07:18:55.958Z,22.73
2022-07-31T07:21:23.929Z,22.59
2022-07-31T07:23:52.980Z,22.63
2022-07-31T07:26:20.784Z,22.74
2022-07-31T07:28:48.493Z,22.99
2022-07-31T07:31:16.294Z,22.80
2022-07-31T07:33:43.997Z,22.85
2022-07-31T07:36:23.677Z,22.94
2022-07-31T07:38:55.627Z,22.62
2022-07-31T07:41:24.302Z,22.79
2022-07-31T07:43:52.718Z,22.78
2022-07-31T07:46:21.547Z,22.78
2022-07-31T07:48:50.810Z,22.93
2022-07-31T07:51:18.777Z,22.97
2022-07-31T07:53:46.535Z,22.96
2022-07-31T07:56:15.825Z,22.77
2022-07-31T07:58:43.640Z,22.96
2022-07-31T08:01:11.494Z,23.09
2022-07-31T08:03:48.688Z,22.80
2022-07-31T08:06:19.984Z,22.81
2022-07-31T08:08:47.846Z,22.69
2022-07-31T08:11:18.009Z,22.55
2022-07-31T08:13:51.235Z,22.41
2022-07-31T08:16:20.118Z,22.97
2022-07-31T08:18:47.931Z,23.06
2022-07-31T08:21:16.029Z,23.16
2022-07-31T08:23:43.837Z,23.00
2022-07-31T08:26:13.794Z,23.24
2022-07-31T08:28:50.295Z,22.94
2022-07-31T08:31:19.746Z,23.03
2022-07-31T08:33:47.537Z,23.36
2022-07-31T08:36:15.355Z,23.07
2022-07-31T08:38:43.086Z,22.97
2022-07-31T08:41:10.785Z,23.13
2022-07-31T08:44:02.436Z,23.46
2022-07-31T08:46:27.861Z,23.34
2022-07-31T08:48:58.066Z,23.43
2022-07-31T08:51:26.519Z,23.59
2022-07-31T08:53:54.378Z,23.73
2022-07-31T08:56:22.459Z,23.78
2022-07-31T08:58:50.270Z,23.91
2022-07-31T09:01:18.456Z,23.76
2022-07-31T09:03:47.519Z,23.91
2022-07-31T09:06:15.338Z,23.91
2022-07-31T09:08:43.186Z,23.87
2022-07-31T09:11:13.283Z,24.33
2022-07-31T09:13:41.643Z,24.13
2022-07-31T09:16:09.351Z,24.47
2022-07-31T09:18:37.140Z,24.36
2022-07-31T09:21:07.912Z,24.60
2022-07-31T09:23:45.193Z,24.74
2022-07-31T09:26:13.015Z,24.77
2022-07-31T09:28:43.152Z,24.88
2022-07-31T09:31:12.067Z,24.94
2022-07-31T09:33:45.349Z,24.86
2022-07-31T09:36:15.785Z,25.07
2022-07-31T09:38:44.416Z,25.03
2022-07-31T09:41:55.961Z,25.02
2022-07-31T09:44:09.436Z,25.11
2022-07-31T09:46:41.439Z,25.22
2022-07-31T09:49:09.201Z,25.06
2022-07-31T09:51:42.503Z,25.08
2022-07-31T09:54:21.310Z,25.27
2022-07-31T09:56:50.066Z,25.38
2022-07-31T09:59:17.858Z,25.59
2022-07-31T10:01:48.657Z,25.48
2022-07-31T10:04:18.667Z,25.64
2022-07-31T10:06:49.583Z,25.63
2022-07-31T10:09:19.434Z,25.52
2022-07-31T10:11:47.621Z,25.79
2022-07-31T10:14:20.420Z,25.83
2022-07-31T10:16:49.745Z,25.96
2022-07-31T10:19:18.309Z,26.16
2022-07-31T10:21:54.507Z,26.17
2022-07-31T10:24:27.936Z,26.20
2022-07-31T10:27:00.884Z,26.48
2022-07-31T10:29:32.793Z,26.48
2022-07-31T10:32:03.085Z,26.74
2022-07-31T10:34:31.426Z,26.59
2022-07-31T10:37:11.112Z,26.75
2022-07-31T10:39:46.990Z,26.66
2022-07-31T10:42:24.109Z,26.64
2022-07-31T10:44:54.923Z,26.77
2022-07-31T10:47:22.712Z,26.93
2022-07-31T10:49:50.796Z,26.89
2022-07-31T10:52:29.896Z,27.22
2022-07-31T10:54:58.220Z,27.33
2022-07-31T10:57:27.134Z,27.22
2022-07-31T10:59:54.928Z,27.30
2022-07-31T11:02:30.098Z,27.03
2022-07-31T11:05:11.716Z,26.84
2022-07-31T11:07:41.591Z,27.06
2022-07-31T11:10:14.245Z,27.01
2022-07-31T11:12:42.117Z,27.56
2022-07-31T11:15:21.337Z,27.48
2022-07-31T11:18:23.781Z,27.60
2022-07-31T11:20:36.987Z,27.33
2022-07-31T11:23:08.095Z,27.79
2022-07-31T11:25:37.610Z,27.52
2022-07-31T11:28:13.521Z,27.57
2022-07-31T11:30:52.290Z,27.70
2022-07-31T11:33:31.677Z,27.27
2022-07-31T11:36:11.612Z,27.53
2022-07-31T11:38:42.526Z,27.57
2022-07-31T11:41:14.298Z,27.40
2022-07-31T11:43:45.138Z,27.41
2022-07-31T11:46:13.348Z,27.59
2022-07-31T11:48:45.328Z,27.76
2022-07-31T11:51:17.995Z,28.07
2022-07-31T11:53:56.697Z,27.69
2022-07-31T11:56:27.241Z,27.80
2022-07-31T11:58:56.633Z,27.99
2022-07-31T12:01:27.099Z,27.96
2022-07-31T12:03:55.309Z,27.92
2022-07-31T12:06:23.239Z,28.34
2022-07-31T12:08:52.435Z,28.21
2022-07-31T12:11:21.086Z,27.83
2022-07-31T12:13:49.789Z,27.91
2022-07-31T12:16:18.552Z,28.24
2022-07-31T12:18:48.181Z,28.26
2022-07-31T12:21:16.559Z,28.30
2022-07-31T12:23:46.285Z,28.20
2022-07-31T12:26:23.608Z,28.11
2022-07-31T12:28:58.483Z,28.28
2022-07-31T12:31:26.455Z,28.41
2022-07-31T12:33:54.370Z,28.56
2022-07-31T12:36:22.528Z,28.55
2022-07-31T12:39:00.181Z,28.15
2022-07-31T12:41:29.525Z,27.75
2022-07-31T12:43:57.381Z,27.86
2022-07-31T12:46:37.231Z,27.64
2022-07-31T12:49:05.477Z,27.31
2022-07-31T12:51:45.371Z,27.61
2022-07-31T12:54:15.369Z,27.47
2022-07-31T12:56:44.872Z,27.70
2022-07-31T12:59:13.108Z,27.62
2022-07-31T13:01:40.980Z,27.66
2022-07-31T13:04:18.652Z,27.81
2022-07-31T13:06:51.339Z,27.66
2022-07-31T13:09:20.006Z,27.99
2022-07-31T13:11:52.138Z,27.68
2022-07-31T13:14:23.361Z,27.85
2022-07-31T13:16:52.477Z,28.01
2022-07-31T13:19:20.616Z,27.82
2022-07-31T13:21:50.173Z,27.68
2022-07-31T13:24:19.159Z,27.90
2022-07-31T13:26:48.694Z,27.82
2022-07-31T13:29:16.596Z,27.93
2022-07-31T13:31:44.543Z,27.83
2022-07-31T13:34:12.344Z,27.88
2022-07-31T13:36:40.252Z,28.01
2022-07-31T13:39:08.086Z,28.01
2022-07-31T13:41:36.647Z,27.65
2022-07-31T13:44:09.349Z,27.56
2022-07-31T13:46:37.383Z,27.34
2022-07-31T13:49:08.268Z,27.49
2022-07-31T13:51:36.685Z,27.35
2022-07-31T13:54:04.641Z,27.50
2022-07-31T13:56:37.524Z,27.51
2022-07-31T13:59:12.362Z,27.55
2022-07-31T14:02:02.876Z,27.53
2022-07-31T14:04:28.610Z,27.51
2022-07-31T14:07:00.740Z,27.52
2022-07-31T14:09:29.682Z,27.42
2022-07-31T14:11:57.445Z,27.42
2022-07-31T14:14:26.629Z,27.45
2022-07-31T14:16:55.337Z,27.39
2022-07-31T14:19:23.033Z,27.32
2022-07-31T14:21:56.767Z,27.30
2022-07-31T14:24:25.673Z,27.61
2022-07-31T14:26:53.700Z,27.72
2022-07-31T14:29:21.533Z,27.74
2022-07-31T14:31:51.345Z,27.75
2022-07-31T14:34:19.105Z,27.63
2022-07-31T14:36:46.824Z,27.71
2022-07-31T14:39:14.731Z,27.79
2022-07-31T14:41:42.460Z,27.74
2022-07-31T14:44:10.204Z,27.69
2022-07-31T14:46:37.950Z,27.54
2022-07-31T14:49:08.504Z,27.37
2022-07-31T14:51:36.304Z,27.21
2022-07-31T14:54:04.048Z,27.07
2022-07-31T14:56:58.879Z,27.18
2022-07-31T14:59:19.921Z,27.22
2022-07-31T15:01:47.768Z,26.87
2022-07-31T15:04:16.928Z,26.67
2022-07-31T15:06:55.971Z,26.44
2022-07-31T15:09:31.114Z,26.41
2022-07-31T15:12:01.212Z,26.35
2022-07-31T15:14:29.485Z,26.62
2022-07-31T15:16:57.236Z,26.85
2022-07-31T15:19:26.293Z,26.56
2022-07-31T15:22:09.985Z,27.01
2022-07-31T15:24:48.343Z,26.70
2022-07-31T15:27:17.612Z,26.87
2022-07-31T15:30:04.506Z,27.01
2022-07-31T15:32:33.200Z,27.02
2022-07-31T15:35:03.034Z,27.22
2022-07-31T15:37:31.003Z,27.24
2022-07-31T15:40:02.366Z,27.16
2022-07-31T15:42:31.294Z,27.00
2022-07-31T15:44:59.076Z,27.14
2022-07-31T15:47:26.825Z,26.71
2022-07-31T15:49:54.596Z,26.70
2022-07-31T15:52:23.721Z,26.69
2022-07-31T15:54:52.597Z,26.60
2022-07-31T15:57:20.820Z,26.95
2022-07-31T15:59:49.433Z,26.72
2022-07-31T16:02:17.773Z,26.84
2022-07-31T16:04:53.063Z,26.90
2022-07-31T16:08:32.666Z,26.40
2022-07-31T16:10:16.149Z,26.45
2022-07-31T16:12:45.723Z,26.10
2022-07-31T16:15:13.749Z,26.24
2022-07-31T16:17:41.519Z,26.48
2022-07-31T16:20:11.761Z,26.33
2022-07-31T16:22:42.305Z,26.29
2022-07-31T16:25:11.681Z,26.64
2022-07-31T16:27:40.317Z,26.34
2022-07-31T16:30:08.809Z,26.39
2022-07-31T16:32:36.737Z,26.55
2022-07-31T16:35:06.102Z,26.75
2022-07-31T16:37:51.587Z,26.44
2022-07-31T16:40:29.730Z,26.28
2022-07-31T16:43:50.124Z,26.37
2022-07-31T16:45:51.231Z,26.08
2022-07-31T16:48:19.326Z,26.21
2022-07-31T16:50:54.132Z,26.19
2022-07-31T16:54:14.298Z,26.17
2022-07-31T16:56:11.910Z,26.20
2022-07-31T16:58:39.624Z,26.31
2022-07-31T17:01:53.941Z,25.92
2022-07-31T17:04:00.713Z,26.02
2022-07-31T17:06:36.368Z,25.97
2022-07-31T17:09:16.451Z,26.13
2022-07-31T17:11:48.909Z,26.21
2022-07-31T17:14:18.145Z,26.05
2022-07-31T17:16:48.428Z,25.93
2022-07-31T17:19:41.046Z,25.37
2022-07-31T17:22:05.492Z,25.83
2022-07-31T17:24:36.471Z,25.79
2022-07-31T17:27:06.695Z,26.05
2022-07-31T17:29:34.887Z,25.52
2022-07-31T17:32:05.919Z,25.48
2022-07-31T17:34:35.203Z,25.55
2022-07-31T17:37:07.419Z,25.84
2022-07-31T17:39:35.935Z,25.69
2022-07-31T17:42:06.552Z,25.77
2022-07-31T17:47:07.676Z,25.89
2022-07-31T17:47:26.396Z,25.80
2022-07-31T17:49:54.615Z,25.16
2022-07-31T17:52:22.320Z,25.74
2022-07-31T17:54:51.257Z,25.76
2022-07-31T17:57:22.675Z,25.90
2022-07-31T17:59:51.510Z,25.54
2022-07-31T18:02:19.290Z,25.92
2022-07-31T18:04:47.028Z,25.74
2022-07-31T18:07:17.750Z,25.75
2022-07-31T18:09:46.048Z,25.82
2022-07-31T18:12:15.835Z,25.81
2022-07-31T18:14:46.223Z,25.57
2022-07-31T18:17:13.944Z,25.43
2022-07-31T18:19:42.422Z,25.52
2022-07-31T18:22:10.270Z,25.73
2022-07-31T18:24:38.044Z,25.72
2022-07-31T18:27:07.758Z,25.76
2022-07-31T18:29:35.514Z,25.72
2022-07-31T18:32:08.233Z,25.86
2022-07-31T18:34:36.103Z,25.88
2022-07-31T18:37:04.917Z,25.73
2022-07-31T18:39:32.624Z,25.88
2022-07-31T18:42:00.361Z,25.87
2022-07-31T18:44:30.723Z,25.62
2022-07-31T18:46:58.430Z,25.85
2022-07-31T18:50:58.345Z,25.87
2022-07-31T18:52:16.068Z,25.93
2022-07-31T18:54:43.848Z,25.84
2022-07-31T18:57:11.891Z,25.68
2022-07-31T18:59:39.651Z,25.44
2022-07-31T19:02:08.646Z,25.26
2022-07-31T19:04:41.245Z,25.30
2022-07-31T19:07:09.003Z,25.43
2022-07-31T19:09:36.723Z,25.32
2022-07-31T19:12:08.210Z,24.81
2022-07-31T19:14:36.794Z,24.53
2022-07-31T19:17:08.281Z,24.71
2022-07-31T19:19:54.576Z,24.78
2022-07-31T19:22:25.555Z,24.54
2022-07-31T19:24:53.449Z,24.48
2022-07-31T19:27:21.342Z,24.74
2022-07-31T19:29:49.090Z,24.60
2022-07-31T19:32:16.823Z,24.12
2022-07-31T19:34:48.152Z,23.76
2022-07-31T19:37:20.079Z,23.75
2022-07-31T19:39:49.176Z,24.16
2022-07-31T19:42:17.009Z,24.15
2022-07-31T19:44:44.805Z,23.90
2022-07-31T19:47:12.544Z,24.16
2022-07-31T19:49:43.006Z,23.88
2022-07-31T19:52:10.821Z,23.59
2022-07-31T19:54:38.601Z,23.83
2022-07-31T19:57:07.659Z,23.64
2022-07-31T19:59:35.364Z,23.68
2022-07-31T20:02:03.414Z,23.68
2022-07-31T20:04:31.313Z,23.79
2022-07-31T20:06:59.017Z,24.06
2022-07-31T20:09:26.794Z,23.78
2022-07-31T20:11:54.460Z,23.85
2022-07-31T20:14:23.533Z,23.47
2022-07-31T20:16:51.270Z,23.55
2022-07-31T20:19:19.046Z,23.33
2022-07-31T20:21:46.763Z,23.15
2022-07-31T20:24:14.535Z,23.27
2022-07-31T20:26:42.212Z,23.89
2022-07-31T20:29:09.930Z,23.59
2022-07-31T20:31:39.697Z,24.00
2022-07-31T20:34:07.462Z,24.02
2022-07-31T20:36:35.221Z,24.03
2022-07-31T20:39:02.987Z,24.13
2022-07-31T20:41:30.868Z,24.29
2022-07-31T20:43:58.644Z,24.06
2022-07-31T20:46:27.580Z,23.69
2022-07-31T20:48:57.264Z,23.93
2022-07-31T20:51:25.016Z,23.88
2022-07-31T20:53:53.636Z,23.81
2022-07-31T20:56:22.513Z,23.78
2022-07-31T20:58:51.930Z,23.83
2022-07-31T21:01:20.866Z,23.75
2022-07-31T21:03:48.897Z,23.40
2022-07-31T21:06:19.202Z,23.64
2022-07-31T21:08:46.937Z,23.68
2022-07-31T21:11:14.660Z,23.70
2022-07-31T21:13:43.086Z,23.42
2022-07-31T21:16:10.859Z,23.73
2022-07-31T21:18:43.011Z,23.49
2022-07-31T21:21:11.457Z,23.61
2022-07-31T21:23:40.531Z,23.62
2022-07-31T21:26:08.661Z,23.47
2022-07-31T21:28:36.936Z,23.53
2022-07-31T21:31:05.314Z,23.74
2022-07-31T21:33:33.666Z,23.86
2022-07-31T21:36:02.964Z,23.77
2022-07-31T21:38:31.112Z,23.67
2022-07-31T21:41:00.735Z,23.96
2022-07-31T21:43:30.456Z,23.56
2022-07-31T21:46:07.326Z,23.56
2022-07-31T21:48:38.067Z,23.85
2022-07-31T21:51:06.403Z,23.61
2022-07-31T21:53:35.576Z,22.86
2022-07-31T21:56:05.037Z,23.48
2022-07-31T21:58:32.757Z,23.07
2022-07-31T22:01:00.549Z,23.01
2022-07-31T22:03:28.352Z,23.16
2022-07-31T22:06:13.758Z,23.32
2022-07-31T22:08:41.465Z,22.97
2022-07-31T22:11:10.682Z,23.46
2022-07-31T22:13:38.782Z,23.30
2022-07-31T22:16:06.823Z,22.91
2022-07-31T22:18:35.369Z,23.03
2022-07-31T22:21:04.858Z,22.87
2022-07-31T22:23:33.117Z,22.96
2022-07-31T22:26:03.573Z,22.80
2022-07-31T22:28:32.953Z,23.00
2022-07-31T22:31:00.976Z,22.90
2022-07-31T22:33:29.285Z,23.12
2022-07-31T22:36:00.537Z,23.18
2022-07-31T22:38:30.897Z,23.37
2022-07-31T22:40:59.097Z,23.24
2022-07-31T22:44:10.954Z,23.21
2022-07-31T22:46:16.638Z,23.09
2022-07-31T22:48:46.250Z,23.12
2022-07-31T22:51:15.175Z,23.35
2022-07-31T22:53:43.581Z,23.29
2022-07-31T22:56:11.330Z,23.02
2022-07-31T22:58:39.327Z,23.29
2022-07-31T23:01:07.056Z,23.38
2022-07-31T23:03:36.128Z,23.07
2022-07-31T23:06:31.666Z,23.17
2022-07-31T23:08:54.485Z,23.43
2022-07-31T23:11:24.329Z,23.14
2022-07-31T23:13:52.113Z,23.37
2022-07-31T23:16:20.940Z,23.28
2022-07-31T23:18:50.540Z,23.16
2022-07-31T23:21:18.495Z,23.34
2022-07-31T23:23:49.226Z,23.39
2022-07-31T23:26:18.692Z,23.07
2022-07-31T23:28:46.471Z,23.28
2022-07-31T23:31:14.255Z,23.23
2022-07-31T23:33:42.416Z,23.32
2022-07-31T23:36:11.529Z,23.36
2022-07-31T23:38:39.372Z,23.39
2022-07-31T23:41:07.448Z,22.95
2022-07-31T23:43:34.462Z,23.10
2022-07-31T23:46:03.037Z,23.22
2022-07-31T23:48:31.250Z,22.70
2022-07-31T23:50:59.221Z,23.19
2022-07-31T23:53:28.285Z,22.93
2022-07-31T23:55:55.992Z,22.95
2022-07-31T23:58:23.778Z,23.07
